sensor_id;sensor_type;location;lat;lon;timestamp;temperature;humidity
57719;DHT22;43561;50.090;18.522;2022-12-07T00:04:17;2.00;99.90
57719;DHT22;43561;50.090;18.522;2022-12-07T00:14:20;2.10;99.90
57719;DHT22;43561;50.090;18.522;2022-12-07T00:24:22;2.20;99.90
57719;DHT22;43561;50.090;18.522;2022-12-07T00:34:24;2.20;99.90
57719;DHT22;43561;50.090;18.522;2022-12-07T00:44:26;2.20;99.90
57719;DHT22;43561;50.090;18.522;2022-12-07T00:54:28;2.30;99.90
57719;DHT22;43561;50.090;18.522;2022-12-07T01:04:30;2.30;99.90
57719;DHT22;43561;50.090;18.522;2022-12-07T01:14:32;2.30;99.90
57719;DHT22;43561;50.090;18.522;2022-12-07T01:24:34;2.40;99.90
57719;DHT22;43561;50.090;18.522;2022-12-07T01:34:35;2.30;99.90
57719;DHT22;43561;50.090;18.522;2022-12-07T01:55:18;2.40;99.90
57719;DHT22;43561;50.090;18.522;2022-12-07T02:05:20;2.40;99.90
57719;DHT22;43561;50.090;18.522;2022-12-07T02:36:28;2.60;99.90
57719;DHT22;43561;50.090;18.522;2022-12-07T02:46:37;2.50;99.90
57719;DHT22;43561;50.090;18.522;2022-12-07T03:06:51;2.40;99.90
57719;DHT22;43561;50.090;18.522;2022-12-07T03:17:00;2.40;99.90
57719;DHT22;43561;50.090;18.522;2022-12-07T03:27:12;2.30;99.90
57719;DHT22;43561;50.090;18.522;2022-12-07T03:37:20;2.10;99.90
57719;DHT22;43561;50.090;18.522;2022-12-07T03:47:33;2.10;99.90
57719;DHT22;43561;50.090;18.522;2022-12-07T03:57:37;2.10;99.90
57719;DHT22;43561;50.090;18.522;2022-12-07T04:07:41;2.10;99.90
57719;DHT22;43561;50.090;18.522;2022-12-07T04:17:43;2.00;99.90
57719;DHT22;43561;50.090;18.522;2022-12-07T04:27:45;2.10;99.90
57719;DHT22;43561;50.090;18.522;2022-12-07T04:37:47;2.00;99.90
57719;DHT22;43561;50.090;18.522;2022-12-07T04:47:49;1.90;99.90
57719;DHT22;43561;50.090;18.522;2022-12-07T04:57:50;1.80;99.90
57719;DHT22;43561;50.090;18.522;2022-12-07T05:07:53;1.80;99.90
57719;DHT22;43561;50.090;18.522;2022-12-07T05:17:55;1.90;99.90
57719;DHT22;43561;50.090;18.522;2022-12-07T05:27:57;2.30;99.90
57719;DHT22;43561;50.090;18.522;2022-12-07T05:37:59;1.90;99.90
57719;DHT22;43561;50.090;18.522;2022-12-07T05:48:01;1.90;99.90
57719;DHT22;43561;50.090;18.522;2022-12-07T05:58:03;1.80;99.90
57719;DHT22;43561;50.090;18.522;2022-12-07T06:08:05;1.90;99.90
57719;DHT22;43561;50.090;18.522;2022-12-07T06:18:07;1.80;99.90
57719;DHT22;43561;50.090;18.522;2022-12-07T06:28:09;1.70;99.90
57719;DHT22;43561;50.090;18.522;2022-12-07T06:38:11;1.70;99.90
57719;DHT22;43561;50.090;18.522;2022-12-07T06:48:12;1.70;99.90
57719;DHT22;43561;50.090;18.522;2022-12-07T06:58:15;1.70;99.90
57719;DHT22;43561;50.090;18.522;2022-12-07T07:08:17;1.70;99.90
57719;DHT22;43561;50.090;18.522;2022-12-07T07:18:24;1.60;99.90
57719;DHT22;43561;50.090;18.522;2022-12-07T07:28:26;1.70;99.90
57719;DHT22;43561;50.090;18.522;2022-12-07T07:38:28;1.90;99.90
57719;DHT22;43561;50.090;18.522;2022-12-07T07:48:30;1.90;99.90
57719;DHT22;43561;50.090;18.522;2022-12-07T07:58:31;2.00;99.90
57719;DHT22;43561;50.090;18.522;2022-12-07T08:08:33;2.10;99.90
57719;DHT22;43561;50.090;18.522;2022-12-07T08:18:36;2.20;99.90
57719;DHT22;43561;50.090;18.522;2022-12-07T08:28:39;2.40;99.90
57719;DHT22;43561;50.090;18.522;2022-12-07T08:38:41;2.40;99.90
57719;DHT22;43561;50.090;18.522;2022-12-07T08:59:12;2.60;99.90
57719;DHT22;43561;50.090;18.522;2022-12-07T09:09:15;2.60;99.90
57719;DHT22;43561;50.090;18.522;2022-12-07T09:19:17;2.70;99.90
57719;DHT22;43561;50.090;18.522;2022-12-07T09:29:19;2.80;99.90
57719;DHT22;43561;50.090;18.522;2022-12-07T09:39:21;3.00;99.90
57719;DHT22;43561;50.090;18.522;2022-12-07T09:49:25;3.20;99.90
57719;DHT22;43561;50.090;18.522;2022-12-07T09:59:29;3.40;99.90
57719;DHT22;43561;50.090;18.522;2022-12-07T10:09:37;3.60;99.90
57719;DHT22;43561;50.090;18.522;2022-12-07T10:19:39;3.60;99.90
57719;DHT22;43561;50.090;18.522;2022-12-07T10:29:50;3.70;99.90
57719;DHT22;43561;50.090;18.522;2022-12-07T10:39:58;3.60;99.90
57719;DHT22;43561;50.090;18.522;2022-12-07T11:20:43;3.90;99.90
57719;DHT22;43561;50.090;18.522;2022-12-07T11:41:08;4.30;99.90
57719;DHT22;43561;50.090;18.522;2022-12-07T11:51:11;4.30;99.90
57719;DHT22;43561;50.090;18.522;2022-12-07T12:21:30;4.40;99.90
57719;DHT22;43561;50.090;18.522;2022-12-07T12:51:40;4.30;99.90
57719;DHT22;43561;50.090;18.522;2022-12-07T13:01:43;4.20;99.90
57719;DHT22;43561;50.090;18.522;2022-12-07T13:11:46;4.10;99.90
57719;DHT22;43561;50.090;18.522;2022-12-07T13:21:48;4.20;99.90
57719;DHT22;43561;50.090;18.522;2022-12-07T13:31:52;3.90;99.90
57719;DHT22;43561;50.090;18.522;2022-12-07T13:41:58;3.90;99.90
57719;DHT22;43561;50.090;18.522;2022-12-07T14:12:36;3.60;99.90
57719;DHT22;43561;50.090;18.522;2022-12-07T14:22:39;3.50;99.90
57719;DHT22;43561;50.090;18.522;2022-12-07T14:32:41;3.50;99.90
57719;DHT22;43561;50.090;18.522;2022-12-07T14:42:45;3.40;99.90
57719;DHT22;43561;50.090;18.522;2022-12-07T14:52:59;3.40;99.90
57719;DHT22;43561;50.090;18.522;2022-12-07T15:03:23;3.40;99.90
57719;DHT22;43561;50.090;18.522;2022-12-07T15:13:25;3.30;99.90
57719;DHT22;43561;50.090;18.522;2022-12-07T15:23:26;3.20;99.90
57719;DHT22;43561;50.090;18.522;2022-12-07T15:33:28;3.20;99.90
57719;DHT22;43561;50.090;18.522;2022-12-07T15:43:30;3.10;99.90
57719;DHT22;43561;50.090;18.522;2022-12-07T15:53:33;3.00;99.90
57719;DHT22;43561;50.090;18.522;2022-12-07T16:03:34;2.90;99.90
57719;DHT22;43561;50.090;18.522;2022-12-07T16:13:36;2.70;99.90
57719;DHT22;43561;50.090;18.522;2022-12-07T16:23:39;2.60;99.90
57719;DHT22;43561;50.090;18.522;2022-12-07T16:33:42;2.40;99.90
57719;DHT22;43561;50.090;18.522;2022-12-07T16:43:44;2.20;99.90
57719;DHT22;43561;50.090;18.522;2022-12-07T16:53:46;2.10;99.90
57719;DHT22;43561;50.090;18.522;2022-12-07T17:03:48;2.00;99.90
57719;DHT22;43561;50.090;18.522;2022-12-07T17:13:50;1.90;99.90
57719;DHT22;43561;50.090;18.522;2022-12-07T17:23:52;1.80;99.90
57719;DHT22;43561;50.090;18.522;2022-12-07T17:33:54;2.00;99.90
57719;DHT22;43561;50.090;18.522;2022-12-07T17:43:56;2.00;99.90
57719;DHT22;43561;50.090;18.522;2022-12-07T17:54:05;2.20;99.90
57719;DHT22;43561;50.090;18.522;2022-12-07T18:04:07;2.40;99.90
57719;DHT22;43561;50.090;18.522;2022-12-07T18:14:09;2.30;99.90
57719;DHT22;43561;50.090;18.522;2022-12-07T18:24:15;2.50;99.90
57719;DHT22;43561;50.090;18.522;2022-12-07T18:34:18;2.20;99.90
57719;DHT22;43561;50.090;18.522;2022-12-07T18:44:20;3.30;99.90
57719;DHT22;43561;50.090;18.522;2022-12-07T18:54:22;2.20;99.90
57719;DHT22;43561;50.090;18.522;2022-12-07T19:04:23;2.10;99.90
57719;DHT22;43561;50.090;18.522;2022-12-07T19:14:28;2.10;99.90
57719;DHT22;43561;50.090;18.522;2022-12-07T19:24:31;2.10;99.90
57719;DHT22;43561;50.090;18.522;2022-12-07T19:34:33;2.10;99.90
57719;DHT22;43561;50.090;18.522;2022-12-07T19:44:35;2.20;99.90
57719;DHT22;43561;50.090;18.522;2022-12-07T19:54:37;2.20;99.90
57719;DHT22;43561;50.090;18.522;2022-12-07T20:04:39;2.30;99.90
57719;DHT22;43561;50.090;18.522;2022-12-07T20:14:41;2.20;99.90
57719;DHT22;43561;50.090;18.522;2022-12-07T20:24:43;2.20;99.90
57719;DHT22;43561;50.090;18.522;2022-12-07T20:34:45;2.20;99.90
57719;DHT22;43561;50.090;18.522;2022-12-07T20:44:47;2.20;99.90
57719;DHT22;43561;50.090;18.522;2022-12-07T20:54:49;2.20;99.90
57719;DHT22;43561;50.090;18.522;2022-12-07T21:04:51;2.20;99.90
57719;DHT22;43561;50.090;18.522;2022-12-07T21:14:52;2.20;99.90
57719;DHT22;43561;50.090;18.522;2022-12-07T21:24:54;2.10;99.90
57719;DHT22;43561;50.090;18.522;2022-12-07T21:34:56;2.10;99.90
57719;DHT22;43561;50.090;18.522;2022-12-07T21:44:58;2.00;99.90
57719;DHT22;43561;50.090;18.522;2022-12-07T21:55:00;1.90;99.90
57719;DHT22;43561;50.090;18.522;2022-12-07T22:05:03;1.90;99.90
57719;DHT22;43561;50.090;18.522;2022-12-07T22:15:06;1.80;99.90
57719;DHT22;43561;50.090;18.522;2022-12-07T22:25:09;1.80;99.90
57719;DHT22;43561;50.090;18.522;2022-12-07T22:35:11;1.90;99.90
57719;DHT22;43561;50.090;18.522;2022-12-07T22:45:12;1.90;99.90
57719;DHT22;43561;50.090;18.522;2022-12-07T22:55:14;2.00;99.90
57719;DHT22;43561;50.090;18.522;2022-12-07T23:05:16;2.00;99.90
57719;DHT22;43561;50.090;18.522;2022-12-07T23:15:18;2.00;99.90
57719;DHT22;43561;50.090;18.522;2022-12-07T23:25:21;2.10;99.90
57719;DHT22;43561;50.090;18.522;2022-12-07T23:35:22;2.00;99.90
57719;DHT22;43561;50.090;18.522;2022-12-07T23:45:24;2.00;99.90
57719;DHT22;43561;50.090;18.522;2022-12-07T23:55:26;2.10;99.90
